Time;durP1;ratioP1;P1;durP2;ratioP2;P2;SDS_P1;SDS_P2;PMS_P1;PMS_P2;Temp;Humidity;BMP_temperature;BMP_pressure;BME280_temperature;BME280_humidity;BME280_pressure;Samples;Min_cycle;Max_cycle;Signal;HPM_P1;HPM_P2
2022/09/28 00:00:13;;;;;;;84.95;78.80;;;;;;;15.28;100.00;99840.13;5018476;28;20041;-90
2022/09/28 00:02:42;;;;;;;96.15;89.18;;;;;;;15.40;100.00;99828.41;5011413;28;20478;-89
2022/09/28 00:05:10;;;;;;;93.65;86.68;;;;;;;15.44;100.00;99838.34;5006773;28;20046;-90
2022/09/28 00:07:41;;;;;;;99.15;91.65;;;;;;;15.65;100.00;99838.47;5021911;28;20467;-91
2022/09/28 00:10:09;;;;;;;108.60;100.63;;;;;;;15.64;100.00;99847.53;5019627;28;20045;-91
2022/09/28 00:12:36;;;;;;;102.32;94.80;;;;;;;15.71;100.00;99840.13;5019452;28;20041;-88
2022/09/28 00:15:04;;;;;;;115.38;107.28;;;;;;;15.60;100.00;99841.09;5019110;28;20069;-89
2022/09/28 00:17:33;;;;;;;107.70;99.90;;;;;;;15.60;100.00;99827.72;5015802;28;20483;-90
2022/09/28 00:20:04;;;;;;;104.53;96.80;;;;;;;15.72;100.00;99814.97;5019146;28;20046;-88
2022/09/28 00:22:31;;;;;;;92.03;85.32;;;;;;;15.53;100.00;99823.41;5012171;28;20088;-89
2022/09/28 00:24:58;;;;;;;110.70;103.38;;;;;;;15.63;100.00;99814.63;5016971;28;20045;-89
2022/09/28 00:27:28;;;;;;;113.32;105.32;;;;;;;15.52;100.00;99813.78;5019335;28;20046;-90
2022/09/28 00:29:54;;;;;;;106.72;99.05;;;;;;;15.50;100.00;99818.56;5014555;28;20056;-90
2022/09/28 00:32:24;;;;;;;95.30;88.20;;;;;;;15.56;100.00;99811.38;5017206;28;20058;-90
2022/09/28 00:34:52;;;;;;;94.60;87.40;;;;;;;15.39;100.00;99808.09;5018571;28;20049;-91
2022/09/28 00:37:20;;;;;;;100.20;92.90;;;;;;;15.68;100.00;99809.31;5016278;28;20061;-89
2022/09/28 00:39:49;;;;;;;92.13;85.00;;;;;;;15.77;100.00;99801.59;5018672;28;20049;-90
2022/09/28 00:42:19;;;;;;;91.72;84.72;;;;;;;15.71;100.00;99794.63;5017500;28;20054;-90
2022/09/28 00:44:50;;;;;;;84.05;77.65;;;;;;;15.72;100.00;99796.22;5016383;28;20045;-88
2022/09/28 00:47:41;;;;;;;83.28;76.35;;;;;;;15.58;100.00;99793.19;5006457;28;20050;-90
2022/09/28 00:50:13;;;;;;;83.18;76.57;;;;;;;15.73;100.00;99795.16;5018275;28;20145;-90
2022/09/28 00:52:47;;;;;;;81.88;75.82;;;;;;;15.93;100.00;99800.56;5016933;28;20108;-90
2022/09/28 00:55:21;;;;;;;94.20;87.40;;;;;;;15.71;100.00;99805.31;5017152;28;21315;-88
2022/09/28 00:57:51;;;;;;;75.13;69.38;;;;;;;15.82;100.00;99798.13;5017196;28;20061;-89
2022/09/28 01:00:18;;;;;;;74.00;68.15;;;;;;;15.77;100.00;99801.59;5009628;28;20046;-89
2022/09/28 01:02:46;;;;;;;77.95;71.85;;;;;;;15.62;100.00;99804.19;5011872;28;20060;-88
2022/09/28 01:05:14;;;;;;;70.05;64.38;;;;;;;15.62;100.00;99796.97;5015271;28;20046;-88
2022/09/28 01:07:46;;;;;;;76.55;70.43;;;;;;;15.46;100.00;99800.63;5012455;28;20368;-89
2022/09/28 01:10:15;;;;;;;81.33;75.10;;;;;;;15.65;100.00;99796.44;5018551;28;20049;-88
2022/09/28 01:12:42;;;;;;;98.78;91.97;;;;;;;15.60;100.00;99787.56;5020109;28;20042;-88
2022/09/28 01:15:09;;;;;;;87.55;81.35;;;;;;;15.62;100.00;99791.59;5016676;28;20050;-88
2022/09/28 01:17:56;;;;;;;89.07;82.85;;;;;;;15.62;100.00;99796.16;5011478;28;20046;-89
2022/09/28 01:20:56;;;;;;;75.00;69.53;;;;;;;15.94;100.00;99791.47;5015035;28;20076;-89
2022/09/28 01:24:11;;;;;;;82.85;76.53;;;;;;;15.95;100.00;99795.78;5014243;28;20115;-90
2022/09/28 01:27:02;;;;;;;74.00;68.32;;;;;;;15.77;100.00;99797.06;5017935;28;20042;-89
2022/09/28 01:29:52;;;;;;;81.38;75.38;;;;;;;15.94;100.00;99801.38;5011686;28;20384;-89
2022/09/28 01:32:38;;;;;;;74.05;68.85;;;;;;;15.72;100.00;99810.41;5015994;28;20061;-88
2022/09/28 01:35:15;;;;;;;72.30;66.80;;;;;;;15.73;100.00;99812.03;5014742;28;20042;-90
2022/09/28 01:37:50;;;;;;;69.88;64.95;;;;;;;15.68;100.00;99803.19;5012643;28;20041;-89
2022/09/28 01:40:21;;;;;;;59.80;55.10;;;;;;;15.50;100.00;99807.06;5016004;28;20038;-90
2022/09/28 01:42:53;;;;;;;61.15;56.55;;;;;;;15.43;100.00;99810.00;5013954;28;20049;-91
2022/09/28 01:45:26;;;;;;;74.93;69.83;;;;;;;15.26;100.00;99817.38;5019550;28;20058;-88
2022/09/28 01:48:05;;;;;;;67.00;62.10;;;;;;;14.95;100.00;99814.50;5017195;28;20297;-89
2022/09/28 01:50:37;;;;;;;64.80;59.63;;;;;;;14.72;100.00;99823.66;5021940;28;20046;-88
2022/09/28 01:53:11;;;;;;;68.55;63.25;;;;;;;14.90;100.00;99822.47;5019789;28;20047;-90
2022/09/28 01:55:44;;;;;;;65.10;60.40;;;;;;;14.75;100.00;99819.69;5016578;28;20052;-88
2022/09/28 01:58:15;;;;;;;64.38;59.95;;;;;;;14.57;100.00;99816.31;5021232;28;20058;-89
2022/09/28 02:00:46;;;;;;;62.75;57.65;;;;;;;14.40;100.00;99820.94;5137105;23;20025;-89
2022/09/28 02:03:17;;;;;;;62.47;57.58;;;;;;;14.24;100.00;99821.84;4997612;28;20054;-90
2022/09/28 02:05:51;;;;;;;66.50;61.30;;;;;;;14.12;100.00;99827.34;4999470;28;20062;-89
2022/09/28 02:08:25;;;;;;;70.20;64.53;;;;;;;13.96;100.00;99834.38;5004466;28;20046;-88
2022/09/28 02:10:58;;;;;;;65.43;60.22;;;;;;;13.77;100.00;99841.91;5000833;28;20054;-88
2022/09/28 02:13:31;;;;;;;67.75;62.35;;;;;;;14.10;100.00;99845.47;5003240;28;20070;-91
2022/09/28 02:16:13;;;;;;;66.00;60.60;;;;;;;13.88;100.00;99843.63;4998498;28;20053;-88
2022/09/28 02:18:47;;;;;;;69.43;64.13;;;;;;;13.98;100.00;99849.09;5003658;28;20109;-89
2022/09/28 02:21:17;;;;;;;74.93;69.38;;;;;;;14.05;100.00;99843.56;4996327;28;20129;-89
2022/09/28 02:23:52;;;;;;;65.75;60.65;;;;;;;13.73;100.00;99849.56;5000581;28;20042;-89
2022/09/28 02:26:24;;;;;;;74.88;69.25;;;;;;;14.06;100.00;99845.16;5004978;28;20050;-89
2022/09/28 02:28:53;;;;;;;74.93;69.22;;;;;;;14.19;100.00;99846.63;5002098;28;20046;-89
2022/09/28 02:31:20;;;;;;;61.60;56.78;;;;;;;14.01;100.00;99842.44;4993753;28;20057;-90
2022/09/28 02:33:49;;;;;;;64.70;59.65;;;;;;;14.02;100.00;99848.59;5002531;28;20136;-90
2022/09/28 02:36:17;;;;;;;58.38;53.60;;;;;;;13.94;100.00;99853.28;5002541;28;20081;-91
2022/09/28 02:38:45;;;;;;;63.28;58.38;;;;;;;13.94;100.00;99853.28;5000366;28;20101;-90
2022/09/28 02:41:25;;;;;;;68.00;63.03;;;;;;;14.02;100.00;99864.63;5001702;28;20047;-90
2022/09/28 02:44:03;;;;;;;70.47;65.18;;;;;;;13.90;100.00;99867.41;5005874;28;20043;-89
2022/09/28 02:46:36;;;;;;;65.40;60.22;;;;;;;13.81;100.00;99869.69;4998543;28;20133;-89
2022/09/28 02:49:16;;;;;;;63.33;58.28;;;;;;;13.58;100.00;99870.72;4999414;28;20060;-89
2022/09/28 02:51:51;;;;;;;62.55;57.40;;;;;;;13.58;100.00;99875.25;4995202;28;20104;-90
2022/09/28 02:54:37;;;;;;;75.72;69.55;;;;;;;14.21;100.00;99872.03;4990080;28;20051;-89
2022/09/28 02:57:18;;;;;;;62.92;58.13;;;;;;;13.44;100.00;99872.13;5001574;28;20065;-89
2022/09/28 03:00:07;;;;;;;61.00;56.10;;;;;;;13.27;100.00;99883.63;4998386;28;20125;-89
2022/09/28 03:02:41;;;;;;;64.35;59.35;;;;;;;13.25;100.00;99891.06;4999863;28;20058;-89
2022/09/28 03:05:19;;;;;;;62.40;57.00;;;;;;;13.20;100.00;99882.16;5005267;28;20049;-89
2022/09/28 03:07:58;;;;;;;64.38;58.97;;;;;;;13.32;100.00;99890.09;5003863;28;20467;-90
2022/09/28 03:10:33;;;;;;;65.85;60.65;;;;;;;13.43;100.00;99887.31;4999525;28;20065;-89
2022/09/28 03:13:05;;;;;;;62.55;57.65;;;;;;;13.25;100.00;99898.22;5001110;28;20046;-89
2022/09/28 03:15:36;;;;;;;63.35;58.55;;;;;;;13.13;100.00;99898.31;5011943;28;20087;-90
2022/09/28 03:18:07;;;;;;;71.95;66.35;;;;;;;13.17;100.00;99910.09;4993451;28;20057;-88
2022/09/28 03:38:28;;;;;;;61.20;56.05;;;;;;;12.50;100.00;99905.47;4787557;30;20059;-88
2022/09/28 03:40:59;;;;;;;60.33;55.40;;;;;;;12.60;100.00;99907.53;4784646;29;20055;-88
2022/09/28 03:43:33;;;;;;;62.25;57.55;;;;;;;12.60;100.00;99904.84;4877239;29;20056;-87
2022/09/28 03:46:06;;;;;;;58.08;53.53;;;;;;;12.57;100.00;99919.47;4959081;28;20073;-89
2022/09/28 03:48:42;;;;;;;65.70;60.90;;;;;;;12.53;100.00;99906.88;4995777;28;20062;-86
2022/09/28 03:51:20;;;;;;;66.68;61.30;;;;;;;12.44;100.00;99910.97;5001598;28;20076;-87
2022/09/28 03:53:49;;;;;;;59.15;54.03;;;;;;;12.24;100.00;99906.03;5004621;28;20046;-88
2022/09/28 05:41:38;;;;;;;88.30;82.13;;;;;;;16.26;100.00;99937.84;4806738;29;20059;-89
2022/09/28 05:57:11;;;;;;;87.03;79.82;;;;;;;17.24;100.00;99936.16;4955291;28;20048;-89
2022/09/28 06:22:30;;;;;;;57.45;53.78;;;;;;;18.63;100.00;99961.59;4919106;29;20563;-90
2022/09/28 06:25:11;;;;;;;47.60;44.65;;;;;;;18.65;100.00;99960.22;4974188;28;20154;-91
2022/09/28 06:28:09;;;;;;;50.67;47.42;;;;;;;18.84;100.00;99955.03;4965249;28;20054;-89
2022/09/28 06:40:18;;;;;;;35.50;33.78;;;;;;;19.47;100.00;99962.38;4898757;29;20148;-89
2022/09/28 06:46:04;;;;;;;32.92;31.33;;;;;;;19.68;100.00;99966.50;4857600;29;20056;-91
2022/09/28 06:48:53;;;;;;;32.25;30.75;;;;;;;20.09;100.00;99966.09;4901773;29;20080;-88
2022/09/28 06:54:42;;;;;;;31.92;30.42;;;;;;;19.98;100.00;99980.75;4925035;28;20059;-89
2022/09/28 06:57:16;;;;;;;30.95;29.38;;;;;;;20.13;100.00;99977.09;4968745;28;20051;-89
2022/09/28 07:00:05;;;;;;;32.97;30.88;;;;;;;20.16;100.00;99973.03;4966312;28;20051;-88
2022/09/28 07:03:19;;;;;;;32.40;30.67;;;;;;;20.54;100.00;99977.41;4992287;28;20058;-89
2022/09/28 07:06:25;;;;;;;30.05;28.45;;;;;;;20.46;100.00;99972.66;4937340;29;20055;-90
2022/09/28 07:21:06;;;;;;;33.33;31.52;;;;;;;20.27;100.00;99983.41;4996453;28;20054;-88
2022/09/28 07:24:13;;;;;;;32.13;30.40;;;;;;;20.51;100.00;99986.03;5012511;28;20054;-89
2022/09/28 07:26:40;;;;;;;32.45;30.45;;;;;;;20.11;100.00;100003.53;5010573;28;20096;-89
2022/09/28 07:29:12;;;;;;;33.22;31.55;;;;;;;20.25;100.00;99993.66;5011143;28;20054;-87
2022/09/28 07:31:47;;;;;;;33.40;31.48;;;;;;;20.60;100.00;99986.22;5013277;28;20050;-90
2022/09/28 07:34:21;;;;;;;32.03;30.50;;;;;;;20.75;100.00;99983.31;5009539;28;20482;-89
2022/09/28 07:37:17;;;;;;;32.42;30.67;;;;;;;21.02;100.00;99971.88;5009084;28;20061;-88
2022/09/28 07:43:42;;;;;;;33.10;31.48;;;;;;;22.16;100.00;99982.38;4960070;29;20038;-89
2022/09/28 07:46:30;;;;;;;34.38;32.58;;;;;;;21.31;100.00;99978.19;4949402;29;20047;-88
2022/09/28 07:49:29;;;;;;;;;;;;;;;;;;;;;
2022/09/28 07:53:07;;;;;;;33.55;31.67;;;;;;;21.92;100.00;99982.56;5013073;28;20402;-89
2022/09/28 07:55:43;;;;;;;33.20;31.50;;;;;;;20.91;100.00;99983.09;4901894;29;20064;-89
2022/09/28 07:58:24;;;;;;;32.60;30.90;;;;;;;20.97;100.00;99988.16;4909354;29;20048;-88
2022/09/28 08:10:03;;;;;;;;;;;;;;;;;;;;;
2022/09/28 08:12:34;;;;;;;33.65;32.03;;;;;;;22.17;100.00;99989.41;4931008;29;20068;-88
2022/09/28 08:18:39;;;;;;;32.75;30.92;;;;;;;22.97;100.00;99989.91;4953149;28;20411;-89
2022/09/28 08:23:55;;;;;;;33.35;31.83;;;;;;;22.05;100.00;99992.56;4969715;28;20175;-88
2022/09/28 08:26:41;;;;;;;31.50;29.90;;;;;;;22.48;100.00;99994.19;4963453;28;20074;-89
2022/09/28 08:29:34;;;;;;;32.28;30.60;;;;;;;22.73;100.00;99988.25;4963286;28;20047;-89
2022/09/28 08:32:09;;;;;;;32.50;30.80;;;;;;;22.91;99.00;99980.28;4942470;29;20079;-88
2022/09/28 08:34:45;;;;;;;34.08;32.28;;;;;;;23.30;100.00;99977.72;4961728;28;20127;-89
2022/09/28 08:37:15;;;;;;;32.47;30.90;;;;;;;23.34;100.00;99977.13;4965566;28;20143;-89
2022/09/28 08:39:56;;;;;;;32.08;30.48;;;;;;;23.50;100.00;99978.31;4968803;28;20084;-90
2022/09/28 08:42:34;;;;;;;32.90;31.10;;;;;;;23.77;97.33;99978.16;4958668;28;20149;-91
2022/09/28 08:45:13;;;;;;;33.17;31.58;;;;;;;23.38;99.03;99972.66;4953436;28;20065;-89
2022/09/28 08:54:04;;;;;;;34.55;32.75;;;;;;;23.59;98.77;99968.31;4929614;29;20184;-89
2022/09/28 08:56:54;;;;;;;34.60;32.90;;;;;;;22.87;96.56;99966.53;5006818;28;20046;-90
2022/09/28 08:59:48;;;;;;;34.05;32.10;;;;;;;23.11;94.24;99968.97;5013349;28;20080;-90
2022/09/28 09:05:25;;;;;;;34.17;32.20;;;;;;;23.49;95.17;99953.13;5050786;23;20063;-89
2022/09/28 09:09:01;;;;;;;;;;;;;;;;;;;;;
2022/09/28 09:11:54;;;;;;;34.28;32.30;;;;;;;24.80;75.90;99950.84;4994533;28;20058;-90
2022/09/28 09:15:42;;;;;;;;;;;;;;;;;;;;;
2022/09/28 09:31:14;;;;;;;34.65;32.65;;;;;;;24.38;69.54;99974.88;5000861;28;20066;-89
2022/09/28 09:41:08;;;;;;;34.03;32.13;;;;;;;25.23;63.29;99967.13;4893736;28;20086;-90
2022/09/28 09:47:25;;;;;;;35.92;33.63;;;;;;;24.19;63.30;99975.16;4912783;29;20159;-88
2022/09/28 09:50:28;;;;;;;32.50;30.60;;;;;;;25.95;62.55;99967.44;4996900;28;20046;-88
2022/09/28 09:53:22;;;;;;;34.17;32.30;;;;;;;26.17;57.60;99969.09;5004995;28;20250;-89
2022/09/28 09:56:38;;;;;;;35.20;33.20;;;;;;;26.76;52.48;99974.50;5004681;28;20368;-90
2022/09/28 09:59:36;;;;;;;35.72;33.67;;;;;;;25.97;56.91;99978.78;5003185;28;20046;-89
2022/09/28 10:02:49;;;;;;;36.80;34.80;;;;;;;25.69;55.13;99972.94;5000227;28;20058;-90
2022/09/28 10:12:23;;;;;;;36.05;34.00;;;;;;;27.86;50.21;99961.25;4933584;28;20057;-91
2022/09/28 10:37:29;;;;;;;38.47;36.33;;;;;;;26.94;47.30;99967.78;4871191;29;20048;-89
2022/09/28 10:40:26;;;;;;;38.33;36.35;;;;;;;27.05;46.41;99957.28;4881832;29;20045;-90
2022/09/28 10:43:06;;;;;;;38.97;36.65;;;;;;;25.35;49.44;99971.91;4874378;29;20236;-89
2022/09/28 10:45:42;;;;;;;38.97;36.83;;;;;;;25.77;51.15;99961.22;4947715;28;20480;-89
2022/09/28 10:48:24;;;;;;;40.60;38.50;;;;;;;27.33;46.90;99959.44;4969876;28;20051;-90
2022/09/28 10:51:04;;;;;;;40.13;38.22;;;;;;;26.19;48.33;99969.56;4967442;28;20118;-90
2022/09/28 10:53:38;;;;;;;42.05;39.85;;;;;;;25.91;49.81;99967.28;4970221;28;20488;-90
2022/09/28 10:56:20;;;;;;;41.90;39.75;;;;;;;26.60;47.28;99966.13;4959966;28;20075;-89
2022/09/28 10:58:52;;;;;;;42.00;39.70;;;;;;;27.58;43.84;99960.28;4959689;28;20076;-88
2022/09/28 11:01:25;;;;;;;43.42;41.22;;;;;;;27.73;43.28;99961.56;4967237;28;20046;-87
2022/09/28 11:03:57;;;;;;;38.55;36.65;;;;;;;26.81;46.52;99968.88;4974817;28;20066;-89
2022/09/28 11:06:48;;;;;;;45.20;42.63;;;;;;;26.69;47.13;99958.69;4986618;28;20156;-89
2022/09/28 11:09:28;;;;;;;40.08;37.88;;;;;;;27.43;41.88;99952.75;4990129;28;20046;-86
2022/09/28 11:12:10;;;;;;;41.75;39.65;;;;;;;27.89;41.27;99946.13;4981395;28;20525;-89
2022/09/28 11:14:56;;;;;;;38.33;36.13;;;;;;;27.92;39.81;99937.25;4983931;28;20039;-89
2022/09/28 11:17:56;;;;;;;39.05;36.83;;;;;;;27.71;42.19;99936.53;4990294;28;20054;-88
2022/09/28 11:20:40;;;;;;;39.20;36.92;;;;;;;28.56;40.67;99943.91;4985346;28;20065;-88
2022/09/28 11:23:20;;;;;;;39.47;37.58;;;;;;;26.77;40.77;99935.22;4982741;28;20047;-88
2022/09/28 11:26:11;;;;;;;36.55;34.53;;;;;;;27.17;41.26;99935.53;4969530;28;20149;-88
2022/09/28 11:28:51;;;;;;;39.92;37.58;;;;;;;27.28;41.25;99930.44;4980216;28;20133;-88
2022/09/28 11:31:38;;;;;;;37.85;35.88;;;;;;;28.21;42.52;99929.97;4985979;28;20050;-88
2022/09/28 11:35:03;;;;;;;35.13;33.17;;;;;;;26.56;46.98;99924.34;4986032;28;20047;-89
2022/09/28 11:38:24;;;;;;;34.72;32.75;;;;;;;26.89;45.79;99923.59;4986007;28;20050;-87
2022/09/28 11:41:47;;;;;;;;;;;;;;;;;;;;;
2022/09/28 11:47:56;;;;;;;45.60;43.25;;;;;;;28.04;41.36;99914.63;4980375;28;20125;-88
2022/09/28 11:50:56;;;;;;;35.00;33.08;;;;;;;27.73;42.00;99913.25;4988311;28;20521;-89
2022/09/28 11:53:38;;;;;;;34.65;32.85;;;;;;;28.54;39.02;99911.50;4985680;28;20062;-88
2022/09/28 11:56:20;;;;;;;34.70;32.80;;;;;;;28.16;39.76;99914.63;4991369;28;20373;-89
2022/09/28 11:59:05;;;;;;;;;;;;;;;28.45;40.93;99908.13;4989497;28;20087;-88
2022/09/28 12:05:12;;;;;;;35.13;33.13;;;;;;;27.52;42.32;99921.53;4964175;28;20050;-89
2022/09/28 12:07:45;;;;;;;34.80;32.72;;;;;;;27.22;40.60;99909.19;4981153;28;20050;-88
2022/09/28 12:10:21;;;;;;;35.15;33.25;;;;;;;26.80;44.64;99918.22;4979690;28;20062;-89
2022/09/28 12:13:03;;;;;;;47.55;44.85;;;;;;;26.35;47.09;99916.13;4986555;28;20447;-87
2022/09/28 12:15:42;;;;;;;40.17;37.90;;;;;;;27.84;40.30;99914.44;4981979;28;20472;-88
2022/09/28 12:24:42;;;;;;;38.00;35.75;;;;;;;29.98;37.21;99885.94;4931526;29;20055;-90
2022/09/28 12:30:26;;;;;;;44.25;41.65;;;;;;;28.82;38.05;99899.78;4954216;28;20059;-89
2022/09/28 12:33:01;;;;;;;37.00;35.03;;;;;;;30.22;34.87;99884.13;4990590;28;20069;-89
2022/09/28 12:35:53;;;;;;;37.33;34.95;;;;;;;30.86;35.53;99879.97;4979237;28;20117;-89
2022/09/28 12:39:33;;;;;;;;;;;;;;;;;;;;;
2022/09/28 12:42:20;;;;;;;36.20;33.92;;;;;;;30.33;37.05;99888.69;4980415;28;20047;-89
2022/09/28 12:45:08;;;;;;;35.45;33.35;;;;;;;29.03;36.93;99885.16;4979771;28;20142;-88
2022/09/28 12:51:11;;;;;;;39.72;36.63;;;;;;;29.27;37.82;99876.78;4948398;28;20049;-89
2022/09/28 12:53:54;;;;;;;39.60;37.22;;;;;;;28.98;39.17;99878.75;4976568;28;20110;-88
2022/09/28 12:56:38;;;;;;;40.75;38.38;;;;;;;27.89;41.74;99879.84;4977967;28;20499;-88
2022/09/28 12:59:22;;;;;;;39.15;36.75;;;;;;;27.04;41.52;99871.19;4975257;28;20065;-89
2022/09/28 13:02:22;;;;;;;43.00;40.40;;;;;;;29.85;37.23;99874.31;4978585;28;20089;-89
2022/09/28 13:11:30;;;;;;;35.65;33.22;;;;;;;28.96;40.85;99872.84;4978961;28;20069;-88
2022/09/28 13:14:21;;;;;;;37.25;34.80;;;;;;;28.68;38.88;99885.72;4981445;28;20054;-88
2022/09/28 13:17:03;;;;;;;39.03;36.40;;;;;;;27.64;38.09;99885.28;4966645;28;20069;-88
2022/09/28 13:19:46;;;;;;;37.20;34.75;;;;;;;29.70;36.89;99880.59;4984177;28;20420;-87
2022/09/28 13:22:45;;;;;;;34.40;32.30;;;;;;;28.61;39.70;99899.19;4978788;28;20047;-90
2022/09/28 13:25:18;;;;;;;36.97;34.67;;;;;;;28.71;38.56;99885.03;4973532;28;20058;-90
2022/09/28 13:28:02;;;;;;;36.65;34.35;;;;;;;27.29;40.19;99895.81;4976737;28;20133;-89
2022/09/28 13:30:31;;;;;;;36.88;34.38;;;;;;;28.21;39.61;99902.69;4978361;28;20114;-88
2022/09/28 13:36:05;;;;;;;36.78;34.58;;;;;;;28.60;38.10;99892.16;4978446;28;20400;-88
2022/09/28 13:38:50;;;;;;;36.50;34.00;;;;;;;29.56;39.11;99883.78;4975799;28;20109;-89
2022/09/28 13:41:30;;;;;;;37.67;35.38;;;;;;;28.32;40.30;99898.31;4981322;28;20062;-89
2022/09/28 13:44:29;;;;;;;38.38;36.08;;;;;;;27.45;41.21;99883.13;4981897;28;20054;-89
2022/09/28 13:47:56;;;;;;;36.67;34.28;;;;;;;28.43;38.58;99890.47;4983493;28;20046;-88
2022/09/28 13:56:23;;;;;;;34.22;32.03;;;;;;;27.83;40.49;99887.47;4980595;28;20556;-89
2022/09/28 13:59:01;;;;;;;33.05;30.85;;;;;;;27.42;39.66;99889.25;4977382;28;20134;-88
2022/09/28 14:01:41;;;;;;;34.60;32.17;;;;;;;27.64;41.27;99897.00;4981523;28;20105;-88
2022/09/28 14:04:18;;;;;;;34.25;32.05;;;;;;;28.24;39.99;99897.31;4971287;28;20054;-89
2022/09/28 14:06:52;;;;;;;32.20;29.83;;;;;;;27.59;40.30;99902.66;4958506;28;20134;-88
2022/09/28 14:10:00;;;;;;;32.05;29.95;;;;;;;27.15;41.47;99902.38;4959450;28;20465;-90
2022/09/28 14:12:43;;;;;;;32.65;30.42;;;;;;;27.70;39.91;99903.03;4958927;28;20062;-89
2022/09/28 14:15:46;;;;;;;31.40;29.30;;;;;;;27.30;40.59;99892.75;4963630;28;20051;-89
2022/09/28 14:18:34;;;;;;;32.38;30.17;;;;;;;27.66;39.21;99893.94;4957420;28;20392;-90
2022/09/28 14:21:52;;;;;;;32.72;30.52;;;;;;;27.45;42.40;99894.03;4964600;28;20097;-88
2022/09/28 14:24:39;;;;;;;32.80;30.50;;;;;;;27.64;40.79;99888.81;4891542;29;20052;-89
2022/09/28 14:28:01;;;;;;;35.88;33.47;;;;;;;27.78;41.64;99887.72;4958030;28;20047;-88
2022/09/28 14:30:57;;;;;;;33.75;31.55;;;;;;;27.11;43.08;99884.25;4962161;28;20043;-87
2022/09/28 14:33:41;;;;;;;34.35;32.25;;;;;;;27.11;43.87;99884.25;4947162;29;20058;-88
2022/09/28 14:45:53;;;;;;;37.35;34.85;;;;;;;26.80;46.18;99903.81;4959974;28;20133;-89
2022/09/28 14:49:02;;;;;;;32.55;30.35;;;;;;;26.59;46.32;99909.28;4912825;29;20083;-89
2022/09/28 14:52:08;;;;;;;33.70;31.30;;;;;;;26.76;48.76;99913.78;4937549;28;20055;-89
2022/09/28 14:55:10;;;;;;;32.60;30.40;;;;;;;26.41;50.26;99920.25;4960099;28;20133;-89
2022/09/28 14:58:10;;;;;;;34.33;32.03;;;;;;;25.50;53.65;99916.22;4962085;28;20456;-88
2022/09/28 15:01:00;;;;;;;32.58;30.27;;;;;;;24.79;62.67;99925.59;4961774;28;20126;-89
2022/09/28 15:03:32;;;;;;;35.88;33.35;;;;;;;25.03;66.17;99927.81;4964786;28;20448;-86
2022/09/28 15:06:01;;;;;;;38.95;36.38;;;;;;;24.57;69.79;99932.00;4965492;28;20134;-79
2022/09/28 15:08:39;;;;;;;36.55;34.00;;;;;;;24.50;73.72;99934.38;4962210;28;20064;-80
2022/09/28 15:11:11;;;;;;;33.42;31.33;;;;;;;24.23;83.46;99930.00;4955904;28;20052;-82
2022/09/28 15:13:39;;;;;;;35.78;33.67;;;;;;;24.19;85.07;99935.25;4972400;28;20130;-81
2022/09/28 15:16:10;;;;;;;35.63;33.08;;;;;;;23.82;91.18;99936.59;4968087;28;20054;-79
2022/09/28 15:19:04;;;;;;;34.65;32.25;;;;;;;23.79;95.52;99937.22;4968087;28;20047;-79
2022/09/28 15:21:39;;;;;;;33.28;31.00;;;;;;;23.70;97.03;99945.31;4957930;28;20055;-80
2022/09/28 15:24:33;;;;;;;33.42;31.10;;;;;;;23.43;100.00;99940.03;4944496;29;20134;-81
2022/09/28 15:27:01;;;;;;;34.05;31.58;;;;;;;23.24;100.00;99934.81;4966994;28;20054;-80
2022/09/28 15:29:30;;;;;;;35.70;32.83;;;;;;;22.91;100.00;99948.59;4966947;28;20176;-80
2022/09/28 15:31:57;;;;;;;34.60;32.10;;;;;;;22.72;100.00;99948.72;4971538;28;20472;-79
2022/09/28 15:37:20;;;;;;;36.83;34.35;;;;;;;22.44;100.00;99948.00;4969601;28;20054;-80
2022/09/28 15:39:49;;;;;;;39.22;36.83;;;;;;;22.11;100.00;99948.09;4959649;28;20055;-80
2022/09/28 15:42:17;;;;;;;38.70;36.08;;;;;;;22.17;100.00;99943.44;4969958;28;20051;-79
2022/09/28 15:45:02;;;;;;;40.05;37.67;;;;;;;22.00;100.00;99951.31;4971692;28;20051;-80
2022/09/28 15:47:30;;;;;;;37.63;35.30;;;;;;;21.74;100.00;99951.81;4965224;28;20051;-81
2022/09/28 15:50:01;;;;;;;36.17;32.58;;;;;;;21.71;100.00;99960.50;4970676;28;20476;-80
2022/09/28 15:52:37;;;;;;;40.42;36.35;;;;;;;21.54;100.00;99944.06;4969043;28;20085;-80
2022/09/28 15:55:18;;;;;;;40.20;37.15;;;;;;;21.37;100.00;99950.03;4966143;28;20051;-79
2022/09/28 15:57:46;;;;;;;39.28;36.80;;;;;;;21.06;100.00;99958.63;4972839;28;20059;-79
2022/09/28 16:00:30;;;;;;;36.28;33.75;;;;;;;21.01;100.00;99964.88;4968856;28;20058;-81
2022/09/28 16:03:00;;;;;;;34.53;31.77;;;;;;;20.57;100.00;99955.28;4970048;28;20061;-80
2022/09/28 16:05:40;;;;;;;36.10;33.67;;;;;;;20.54;100.00;99961.22;4969751;28;20146;-81
2022/09/28 16:08:20;;;;;;;35.75;33.42;;;;;;;20.41;100.00;99961.13;4973090;28;20047;-81
2022/09/28 16:11:03;;;;;;;32.53;30.38;;;;;;;20.13;100.00;99956.31;4969865;28;20138;-79
2022/09/28 16:13:30;;;;;;;35.30;33.03;;;;;;;19.91;100.00;99958.75;4973228;28;20074;-78
2022/09/28 16:15:58;;;;;;;38.53;34.88;;;;;;;19.42;100.00;99957.81;4971620;28;20047;-79
2022/09/28 16:18:27;;;;;;;34.72;32.53;;;;;;;19.26;100.00;99969.00;4968106;28;20146;-79
2022/09/28 16:20:57;;;;;;;34.63;32.58;;;;;;;19.39;100.00;99973.75;4974323;28;20378;-81
2022/09/28 16:23:29;;;;;;;34.78;32.40;;;;;;;19.59;100.00;99970.06;4977485;28;20090;-81
2022/09/28 16:26:01;;;;;;;34.45;32.05;;;;;;;19.69;100.00;99975.38;4983872;28;20069;-79
2022/09/28 16:28:50;;;;;;;35.67;32.43;;;;;;;19.72;100.00;99964.03;4967019;28;20450;-81
2022/09/28 16:31:27;;;;;;;32.75;30.67;;;;;;;19.87;100.00;99965.78;4960078;28;20023;-80
2022/09/28 16:33:57;;;;;;;32.20;29.63;;;;;;;19.68;100.00;99965.69;4969749;28;20116;-80
2022/09/28 16:36:28;;;;;;;32.78;30.48;;;;;;;19.63;100.00;99974.59;4957929;28;20484;-81
2022/09/28 16:38:56;;;;;;;31.73;29.73;;;;;;;19.56;100.00;99971.44;4959869;28;20472;-81
2022/09/28 16:41:27;;;;;;;32.22;30.00;;;;;;;19.42;100.00;99982.03;4963465;28;20050;-82
2022/09/28 16:43:59;;;;;;;33.55;31.17;;;;;;;19.42;100.00;99981.25;4971766;28;20113;-82
2022/09/28 16:46:32;;;;;;;33.92;31.52;;;;;;;19.38;100.00;99985.59;4968433;28;20083;-81
2022/09/28 16:49:01;;;;;;;34.65;32.25;;;;;;;19.20;100.00;99977.13;4974715;28;20065;-80
2022/09/28 16:51:28;;;;;;;36.13;33.53;;;;;;;19.01;100.00;99984.25;4962056;28;20043;-80
2022/09/28 16:56:44;;;;;;;36.45;33.75;;;;;;;19.01;100.00;99994.22;4960638;28;20053;-81
2022/09/28 16:59:11;;;;;;;57.53;52.67;;;;;;;19.01;100.00;100000.41;4972187;28;20051;-81
2022/09/28 17:01:42;;;;;;;36.83;33.90;;;;;;;18.91;100.00;99992.38;4963396;28;20050;-81
2022/09/28 17:04:10;;;;;;;36.90;33.80;;;;;;;18.96;100.00;99993.16;4979559;28;20051;-80
2022/09/28 17:06:37;;;;;;;36.38;33.50;;;;;;;18.85;100.00;100002.41;4985096;28;20126;-82
2022/09/28 17:09:06;;;;;;;38.90;35.60;;;;;;;18.57;100.00;100009.22;4994077;28;20058;-80
2022/09/28 17:11:34;;;;;;;35.83;33.53;;;;;;;18.68;100.00;100009.97;4990882;28;20056;-82
2022/09/28 17:14:01;;;;;;;39.72;36.78;;;;;;;18.63;100.00;100008.09;4995614;28;20070;-80
2022/09/28 17:16:31;;;;;;;39.90;36.90;;;;;;;18.65;100.00;100014.03;5005158;28;20149;-81
2022/09/28 17:19:00;;;;;;;40.08;37.28;;;;;;;18.57;100.00;100005.72;4997354;28;20054;-80
2022/09/28 17:21:27;;;;;;;42.40;39.10;;;;;;;18.37;100.00;100010.13;4986637;28;20061;-81
2022/09/28 17:23:54;;;;;;;39.60;36.80;;;;;;;18.23;100.00;100020.63;4986462;28;20068;-81
2022/09/28 17:26:29;;;;;;;38.92;36.30;;;;;;;18.20;100.00;100025.75;4986517;28;20373;-80
2022/09/28 17:28:57;;;;;;;36.40;34.28;;;;;;;18.27;100.00;100020.88;4989566;28;20061;-81
2022/09/28 17:31:24;;;;;;;43.22;40.28;;;;;;;18.41;100.00;100019.22;4988655;28;20054;-80
2022/09/28 17:33:51;;;;;;;38.03;35.63;;;;;;;18.43;100.00;100017.09;4989809;28;20070;-79
2022/09/28 17:36:19;;;;;;;35.13;33.13;;;;;;;18.20;100.00;100015.81;4988091;28;20052;-80